createdAt,value
2023-03-17T00:05:39.769Z,1.6
2023-03-17T00:11:23.620Z,1.5
2023-03-17T00:17:07.753Z,1.5
2023-03-17T00:22:51.890Z,1.5
2023-03-17T00:28:36.520Z,1.4
2023-03-17T00:34:20.633Z,1.5
2023-03-17T00:40:04.468Z,1.7
2023-03-17T00:45:48.226Z,1.5
2023-03-17T00:51:32.032Z,1.5
2023-03-17T00:57:15.693Z,1.6
2023-03-17T01:02:59.596Z,1.6
2023-03-17T01:08:44.631Z,1.6
2023-03-17T01:14:28.314Z,1.5
2023-03-17T01:20:15.773Z,1.5
2023-03-17T01:25:59.539Z,1.4
2023-03-17T01:31:45.563Z,1.5
2023-03-17T01:37:29.384Z,1.5
2023-03-17T01:43:22.825Z,1.4
2023-03-17T01:49:13.871Z,1.4
2023-03-17T01:54:59.544Z,1.4
2023-03-17T02:00:43.575Z,1.6
2023-03-17T02:06:27.950Z,1.5
2023-03-17T02:12:12.358Z,1.6
2023-03-17T02:17:56.180Z,1.5
2023-03-17T02:23:39.939Z,1.5
2023-03-17T02:29:24.850Z,1.4
2023-03-17T02:35:09.443Z,1.6
2023-03-17T02:40:53.096Z,1.6
2023-03-17T02:46:36.936Z,1.4
2023-03-17T02:52:20.527Z,1.6
2023-03-17T02:58:05.265Z,1.7
2023-03-17T03:03:49.162Z,1.5
2023-03-17T03:09:33.013Z,1.4
2023-03-17T03:15:17.635Z,1.4
2023-03-17T03:21:01.414Z,1.5
2023-03-17T03:26:45.237Z,1.3
2023-03-17T03:32:29.114Z,1.5
2023-03-17T03:38:13.377Z,1.7
2023-03-17T03:43:57.458Z,1.5
2023-03-17T03:49:41.267Z,1.6
2023-03-17T03:55:25.107Z,1.7
2023-03-17T04:01:10.611Z,1.7
2023-03-17T04:06:54.275Z,1.3
2023-03-17T04:12:38.256Z,1.4
2023-03-17T04:18:22.123Z,1.5
2023-03-17T04:24:07.111Z,1.5
2023-03-17T04:29:50.830Z,1.5
2023-03-17T04:35:34.786Z,1.3
2023-03-17T04:41:18.671Z,1.5
2023-03-17T04:47:02.457Z,1.4
2023-03-17T04:52:46.213Z,1.5
2023-03-17T04:58:32.988Z,1.7
2023-03-17T05:04:31.506Z,1.7
2023-03-17T05:10:15.893Z,1.6
2023-03-17T05:15:59.675Z,1.5
2023-03-17T05:21:43.594Z,1.6
2023-03-17T05:27:27.339Z,1.7
2023-03-17T05:33:11.162Z,1.4
2023-03-17T05:38:54.924Z,1.6
2023-03-17T05:44:38.562Z,1.3
2023-03-17T05:50:22.343Z,1.7
2023-03-17T05:56:06.233Z,1.7
2023-03-17T06:01:49.984Z,1.6
2023-03-17T06:07:51.905Z,1.6
2023-03-17T06:13:37.547Z,1.6
2023-03-17T06:19:21.498Z,1.7
2023-03-17T06:25:05.406Z,1.6
2023-03-17T06:30:49.126Z,1.5
2023-03-17T06:36:32.918Z,1.7
2023-03-17T06:42:17.939Z,1.7
2023-03-17T06:48:01.772Z,1.6
2023-03-17T06:53:45.439Z,1.4
2023-03-17T06:59:29.341Z,1.5
2023-03-17T07:05:13.346Z,1.6
2023-03-17T07:10:59.609Z,1.5
2023-03-17T07:16:43.746Z,1.7
2023-03-17T07:22:27.809Z,1.4
2023-03-17T07:28:11.517Z,1.5
2023-03-17T07:33:58.229Z,1.8
2023-03-17T07:39:42.040Z,1.6
2023-03-17T07:45:26.167Z,1.6
2023-03-17T07:51:12.125Z,1.7
2023-03-17T07:56:56.248Z,1.6
2023-03-17T08:02:40.462Z,1.6
2023-03-17T08:08:24.143Z,1.6
2023-03-17T08:14:08.270Z,1.7
2023-03-17T08:19:51.983Z,1.6
2023-03-17T08:25:36.131Z,1.6
2023-03-17T08:31:20.467Z,1.7
2023-03-17T08:37:05.407Z,1.5
2023-03-17T08:42:50.614Z,1.5
2023-03-17T08:48:34.593Z,1.6
2023-03-17T08:54:18.398Z,1.5
2023-03-17T09:00:02.219Z,1.6
2023-03-17T09:05:45.904Z,1.6
2023-03-17T09:11:31.152Z,1.5
2023-03-17T09:17:15.585Z,1.8
2023-03-17T09:22:59.119Z,1.6
2023-03-17T09:28:44.894Z,1.4
2023-03-17T09:34:28.860Z,1.6
2023-03-17T09:40:15.507Z,1.6
2023-03-17T09:46:02.414Z,1.3
2023-03-17T09:51:46.834Z,1.5
2023-03-17T09:57:33.863Z,1.4
2023-03-17T10:03:17.804Z,1.4
2023-03-17T10:09:03.162Z,1.3
2023-03-17T10:14:53.187Z,1.4
2023-03-17T10:20:40.470Z,1.5
2023-03-17T10:26:28.774Z,1.5
2023-03-17T10:32:13.891Z,1.5
2023-03-17T10:38:14.262Z,1.6
2023-03-17T10:43:59.300Z,1.4
2023-03-17T10:49:45.468Z,1.5
2023-03-17T10:55:30.134Z,1.4
2023-03-17T11:01:17.892Z,1.5
2023-03-17T11:07:06.755Z,1.5
2023-03-17T11:12:55.553Z,1.6
2023-03-17T11:18:40.269Z,1.3
2023-03-17T11:24:41.402Z,1.5
2023-03-17T11:30:32.788Z,1.6
2023-03-17T11:36:22.288Z,1.6
2023-03-17T11:42:13.108Z,1.5
2023-03-17T11:48:05.002Z,1.7
2023-03-17T11:54:01.254Z,1.5
2023-03-17T11:59:49.043Z,1.5
2023-03-17T12:05:36.034Z,1.4
2023-03-17T12:11:22.460Z,1.6
2023-03-17T12:17:10.986Z,1.6
2023-03-17T12:22:58.877Z,1.5
2023-03-17T12:28:45.754Z,1.8
2023-03-17T12:34:33.007Z,1.6
2023-03-17T12:40:19.371Z,1.5
2023-03-17T12:46:12.859Z,1.6
2023-03-17T12:52:03.457Z,1.5
2023-03-17T12:57:48.648Z,1.6
2023-03-17T13:03:34.006Z,1.5
2023-03-17T13:09:36.005Z,1.5
2023-03-17T13:15:28.273Z,1.5
2023-03-17T13:21:16.473Z,1.5
2023-03-17T13:27:02.147Z,1.4
2023-03-17T13:32:47.161Z,1.6
2023-03-17T13:38:43.187Z,1.6
2023-03-17T13:44:43.007Z,1.5
2023-03-17T13:50:33.289Z,1.6
2023-03-17T13:56:24.304Z,1.7
2023-03-17T14:02:13.767Z,1.5
2023-03-17T14:07:59.772Z,1.5
2023-03-17T14:13:48.447Z,1.6
2023-03-17T14:19:32.091Z,1.5
2023-03-17T14:25:21.325Z,1.5
2023-03-17T14:31:06.910Z,1.6
2023-03-17T14:36:52.531Z,1.5
2023-03-17T14:42:38.347Z,1.8
2023-03-17T14:48:24.357Z,1.5
2023-03-17T14:54:13.114Z,1.5
2023-03-17T15:00:03.478Z,1.4
2023-03-17T15:05:47.986Z,1.8
2023-03-17T15:11:36.765Z,1.3
2023-03-17T15:17:21.767Z,1.4
2023-03-17T15:23:06.826Z,1.5
2023-03-17T15:28:51.464Z,1.5
2023-03-17T15:34:35.216Z,1.5
2023-03-17T15:40:19.236Z,1.3
2023-03-17T15:46:04.822Z,1.5
2023-03-17T15:51:48.816Z,1.5
2023-03-17T15:57:32.432Z,1.3
2023-03-17T16:03:20.446Z,1.5
2023-03-17T16:09:04.256Z,1.5
2023-03-17T16:14:47.744Z,1.4
2023-03-17T16:20:34.351Z,1.4
2023-03-17T16:26:25.997Z,1.3
2023-03-17T16:32:11.159Z,1.5
2023-03-17T16:37:55.278Z,1.5
2023-03-17T16:43:39.093Z,1.7
2023-03-17T16:49:24.072Z,1.4
2023-03-17T16:55:08.172Z,1.5
2023-03-17T17:00:52.743Z,1.7
2023-03-17T17:06:36.520Z,1.7
2023-03-17T17:12:20.111Z,1.8
2023-03-17T17:18:05.196Z,1.8
2023-03-17T17:23:49.258Z,1.6
2023-03-17T17:29:36.124Z,1.8
2023-03-17T17:35:21.109Z,1.9
2023-03-17T17:41:05.114Z,2
2023-03-17T17:46:50.326Z,1.9
2023-03-17T17:52:34.026Z,2.2
2023-03-17T17:58:20.626Z,2.3
2023-03-17T18:04:14.123Z,2.4
2023-03-17T18:10:09.943Z,2.7
2023-03-17T18:16:05.693Z,2.7
2023-03-17T18:21:57.027Z,2.9
2023-03-17T18:27:42.030Z,2.8
2023-03-17T18:33:26.358Z,2.8
2023-03-17T18:39:13.113Z,3.3
2023-03-17T18:45:00.867Z,2.7
2023-03-17T18:50:57.974Z,3.3
2023-03-17T18:56:51.162Z,3.2
2023-03-17T19:02:40.821Z,3.3
2023-03-17T19:08:26.441Z,3.6
2023-03-17T19:14:14.724Z,3.7
2023-03-17T19:20:04.889Z,3.4
2023-03-17T19:25:54.668Z,3.5
2023-03-17T19:31:40.229Z,3.6
2023-03-17T19:37:31.603Z,3.3
2023-03-17T19:43:39.735Z,3.5
2023-03-17T19:49:24.470Z,3.5
2023-03-17T19:55:23.899Z,3.3
2023-03-17T20:01:11.548Z,3.3
2023-03-17T20:07:04.563Z,3.5
2023-03-17T20:12:49.432Z,4.4
2023-03-17T20:18:40.915Z,3.7
2023-03-17T20:24:29.109Z,3.8
2023-03-17T20:30:19.519Z,3.9
2023-03-17T20:36:14.124Z,3.9
2023-03-17T20:42:20.487Z,3.6
2023-03-17T20:48:14.852Z,3.5
2023-03-17T20:53:58.908Z,3.5
2023-03-17T20:59:43.258Z,3.3
2023-03-17T21:05:33.573Z,3.6
2023-03-17T21:11:24.221Z,3.6
2023-03-17T21:17:08.710Z,3.5
2023-03-17T21:22:54.764Z,3.8
2023-03-17T21:28:43.107Z,3.7
2023-03-17T21:34:33.754Z,3.4
2023-03-17T21:40:20.673Z,3.6
2023-03-17T21:46:13.603Z,3.5
2023-03-17T21:52:02.602Z,3.4
2023-03-17T21:57:48.749Z,3.4
2023-03-17T22:03:33.984Z,3.5
2023-03-17T22:09:37.424Z,3.6
2023-03-17T22:15:28.164Z,3.7
2023-03-17T22:21:13.285Z,3.3
2023-03-17T22:27:05.343Z,3.1
2023-03-17T22:32:49.683Z,3.5
2023-03-17T22:38:42.117Z,3.3
2023-03-17T22:44:33.148Z,3.3
2023-03-17T22:50:30.424Z,3.3
2023-03-17T22:56:20.755Z,3.4
2023-03-17T23:02:05.293Z,3.6
2023-03-17T23:07:52.996Z,3.3
2023-03-17T23:13:41.405Z,3.4
2023-03-17T23:19:26.120Z,3.7
2023-03-17T23:25:33.062Z,3.7
2023-03-17T23:31:25.102Z,3.2
2023-03-17T23:37:15.867Z,3.5
2023-03-17T23:43:09.207Z,3.7
2023-03-17T23:48:57.885Z,3.4
2023-03-17T23:54:47.832Z,3.5
